sensor_id;sensor_type;location;lat;lon;timestamp;pressure;altitude;pressure_sealevel;temperature;humidity
7182;BME280;3632;42.724;23.298;2024-03-02T00:00:44;94774.72;;;9.87;100.00
7182;BME280;3632;42.724;23.298;2024-03-02T00:03:12;94833.44;;;10.16;100.00
7182;BME280;3632;42.724;23.298;2024-03-02T00:05:40;94834.13;;;10.27;100.00
7182;BME280;3632;42.724;23.298;2024-03-02T00:08:07;94836.94;;;10.24;100.00
7182;BME280;3632;42.724;23.298;2024-03-02T00:10:37;94838.81;;;10.22;100.00
7182;BME280;3632;42.724;23.298;2024-03-02T00:13:05;94833.66;;;10.13;100.00
7182;BME280;3632;42.724;23.298;2024-03-02T00:15:41;94750.91;;;9.57;100.00
7182;BME280;3632;42.724;23.298;2024-03-02T00:18:10;94826.41;;;10.08;100.00
7182;BME280;3632;42.724;23.298;2024-03-02T00:20:38;94830.03;;;10.05;100.00
7182;BME280;3632;42.724;23.298;2024-03-02T00:23:08;94830.50;;;10.20;100.00
7182;BME280;3632;42.724;23.298;2024-03-02T00:25:39;94834.53;;;10.02;100.00
7182;BME280;3632;42.724;23.298;2024-03-02T00:28:13;94836.31;;;10.11;100.00
7182;BME280;3632;42.724;23.298;2024-03-02T00:30:51;94833.13;;;10.09;100.00
7182;BME280;3632;42.724;23.298;2024-03-02T00:33:19;94783.59;;;9.92;100.00
7182;BME280;3632;42.724;23.298;2024-03-02T00:35:47;94781.34;;;9.99;100.00
7182;BME280;3632;42.724;23.298;2024-03-02T00:38:16;94830.38;;;10.31;99.73
7182;BME280;3632;42.724;23.298;2024-03-02T00:40:43;94720.97;;;9.71;99.18
7182;BME280;3632;42.724;23.298;2024-03-02T00:46:00;94630.88;;;9.12;98.85
7182;BME280;3632;42.724;23.298;2024-03-02T00:48:27;94819.63;;;9.97;100.00
7182;BME280;3632;42.724;23.298;2024-03-02T00:50:56;94786.00;;;9.94;100.00
7182;BME280;3632;42.724;23.298;2024-03-02T00:53:26;94821.66;;;10.24;100.00
7182;BME280;3632;42.724;23.298;2024-03-02T00:55:53;94809.31;;;10.20;100.00
7182;BME280;3632;42.724;23.298;2024-03-02T00:58:19;94814.56;;;10.18;100.00
7182;BME280;3632;42.724;23.298;2024-03-02T01:00:46;94810.25;;;9.88;100.00
7182;BME280;3632;42.724;23.298;2024-03-02T01:03:13;94658.44;;;9.07;100.00
7182;BME280;3632;42.724;23.298;2024-03-02T01:05:41;94810.63;;;10.14;100.00
7182;BME280;3632;42.724;23.298;2024-03-02T01:08:08;94811.13;;;10.08;100.00
7182;BME280;3632;42.724;23.298;2024-03-02T01:10:37;94814.34;;;10.10;100.00
7182;BME280;3632;42.724;23.298;2024-03-02T01:13:03;94666.59;;;9.11;100.00
7182;BME280;3632;42.724;23.298;2024-03-02T01:15:30;94813.59;;;10.19;100.00
7182;BME280;3632;42.724;23.298;2024-03-02T01:17:58;94812.81;;;10.28;100.00
7182;BME280;3632;42.724;23.298;2024-03-02T01:20:25;94800.78;;;10.40;99.50
7182;BME280;3632;42.724;23.298;2024-03-02T01:22:51;94803.09;;;10.43;99.08
7182;BME280;3632;42.724;23.298;2024-03-02T01:25:18;94786.84;;;10.44;99.10
7182;BME280;3632;42.724;23.298;2024-03-02T01:27:47;94794.91;;;10.39;99.30
7182;BME280;3632;42.724;23.298;2024-03-02T01:30:14;94788.06;;;10.49;98.41
7182;BME280;3632;42.724;23.298;2024-03-02T01:32:40;94806.69;;;10.40;98.76
7182;BME280;3632;42.724;23.298;2024-03-02T01:35:07;94752.25;;;9.92;100.00
7182;BME280;3632;42.724;23.298;2024-03-02T01:37:34;94785.88;;;10.26;100.00
7182;BME280;3632;42.724;23.298;2024-03-02T01:40:01;94780.69;;;10.37;100.00
7182;BME280;3632;42.724;23.298;2024-03-02T01:42:35;94780.16;;;10.43;100.00
7182;BME280;3632;42.724;23.298;2024-03-02T01:45:04;94775.72;;;10.45;99.45
7182;BME280;3632;42.724;23.298;2024-03-02T01:47:31;94779.09;;;10.45;99.41
7182;BME280;3632;42.724;23.298;2024-03-02T01:49:59;94772.75;;;10.40;99.35
7182;BME280;3632;42.724;23.298;2024-03-02T01:52:26;94656.53;;;9.70;99.50
7182;BME280;3632;42.724;23.298;2024-03-02T01:54:52;94764.34;;;10.39;99.48
7182;BME280;3632;42.724;23.298;2024-03-02T01:57:19;94762.03;;;10.36;99.89
7182;BME280;3632;42.724;23.298;2024-03-02T01:59:46;94763.25;;;10.32;100.00
7182;BME280;3632;42.724;23.298;2024-03-02T02:02:15;94767.00;;;10.38;99.74
7182;BME280;3632;42.724;23.298;2024-03-02T02:04:42;94768.84;;;10.17;100.00
7182;BME280;3632;42.724;23.298;2024-03-02T02:07:09;94769.38;;;10.20;100.00
7182;BME280;3632;42.724;23.298;2024-03-02T02:09:36;94773.66;;;10.20;100.00
7182;BME280;3632;42.724;23.298;2024-03-02T02:12:04;94774.16;;;10.14;100.00
7182;BME280;3632;42.724;23.298;2024-03-02T02:14:32;94704.84;;;9.60;100.00
7182;BME280;3632;42.724;23.298;2024-03-02T02:16:59;94768.13;;;10.15;100.00
7182;BME280;3632;42.724;23.298;2024-03-02T02:19:27;94772.44;;;10.14;100.00
7182;BME280;3632;42.724;23.298;2024-03-02T02:21:55;94770.66;;;10.15;100.00
7182;BME280;3632;42.724;23.298;2024-03-02T02:24:22;94766.41;;;10.15;100.00
7182;BME280;3632;42.724;23.298;2024-03-02T02:26:48;94648.28;;;9.47;100.00
7182;BME280;3632;42.724;23.298;2024-03-02T02:29:15;94771.41;;;10.26;100.00
7182;BME280;3632;42.724;23.298;2024-03-02T02:31:42;94766.88;;;10.30;100.00
7182;BME280;3632;42.724;23.298;2024-03-02T02:34:08;94779.34;;;10.33;99.80
7182;BME280;3632;42.724;23.298;2024-03-02T02:36:37;94769.09;;;10.23;99.52
7182;BME280;3632;42.724;23.298;2024-03-02T02:39:08;94779.13;;;10.15;99.93
7182;BME280;3632;42.724;23.298;2024-03-02T02:41:37;94771.00;;;10.21;99.61
7182;BME280;3632;42.724;23.298;2024-03-02T02:44:04;94778.94;;;10.07;100.00
7182;BME280;3632;42.724;23.298;2024-03-02T02:46:31;94775.06;;;9.73;100.00
7182;BME280;3632;42.724;23.298;2024-03-02T02:48:58;94781.84;;;9.62;100.00
7182;BME280;3632;42.724;23.298;2024-03-02T02:51:24;94784.91;;;9.36;100.00
7182;BME280;3632;42.724;23.298;2024-03-02T02:53:51;94669.97;;;8.91;100.00
7182;BME280;3632;42.724;23.298;2024-03-02T02:56:19;94785.25;;;9.73;100.00
7182;BME280;3632;42.724;23.298;2024-03-02T02:58:46;94714.41;;;9.47;100.00
7182;BME280;3632;42.724;23.298;2024-03-02T03:01:14;94788.81;;;9.91;100.00
7182;BME280;3632;42.724;23.298;2024-03-02T03:03:42;94780.75;;;9.86;100.00
7182;BME280;3632;42.724;23.298;2024-03-02T03:06:09;94783.19;;;9.87;100.00
7182;BME280;3632;42.724;23.298;2024-03-02T03:08:36;94518.69;;;8.15;100.00
7182;BME280;3632;42.724;23.298;2024-03-02T03:11:03;94791.28;;;9.72;100.00
7182;BME280;3632;42.724;23.298;2024-03-02T03:13:32;94790.69;;;9.58;100.00
7182;BME280;3632;42.724;23.298;2024-03-02T03:15:58;94738.03;;;9.08;100.00
7182;BME280;3632;42.724;23.298;2024-03-02T03:18:25;94798.69;;;9.54;100.00
7182;BME280;3632;42.724;23.298;2024-03-02T03:20:52;94781.13;;;9.81;100.00
7182;BME280;3632;42.724;23.298;2024-03-02T03:23:18;94749.31;;;9.15;100.00
7182;BME280;3632;42.724;23.298;2024-03-02T03:25:46;94788.25;;;9.87;100.00
7182;BME280;3632;42.724;23.298;2024-03-02T03:28:12;94724.69;;;9.67;100.00
7182;BME280;3632;42.724;23.298;2024-03-02T03:30:41;94745.34;;;9.22;100.00
7182;BME280;3632;42.724;23.298;2024-03-02T03:33:08;94607.16;;;8.51;100.00
7182;BME280;3632;42.724;23.298;2024-03-02T03:35:36;94741.66;;;9.56;100.00
7182;BME280;3632;42.724;23.298;2024-03-02T03:38:03;94738.38;;;8.83;100.00
7182;BME280;3632;42.724;23.298;2024-03-02T03:40:30;94714.00;;;9.42;100.00
7182;BME280;3632;42.724;23.298;2024-03-02T03:42:57;94770.50;;;9.76;100.00
7182;BME280;3632;42.724;23.298;2024-03-02T03:45:25;94701.16;;;9.44;100.00
7182;BME280;3632;42.724;23.298;2024-03-02T03:47:53;94783.22;;;9.67;100.00
7182;BME280;3632;42.724;23.298;2024-03-02T03:50:20;94785.16;;;9.53;100.00
7182;BME280;3632;42.724;23.298;2024-03-02T03:52:47;94773.91;;;9.56;100.00
7182;BME280;3632;42.724;23.298;2024-03-02T03:55:14;94710.94;;;9.18;100.00
7182;BME280;3632;42.724;23.298;2024-03-02T03:57:40;94779.94;;;9.34;100.00
7182;BME280;3632;42.724;23.298;2024-03-02T04:00:08;94794.19;;;9.26;100.00
7182;BME280;3632;42.724;23.298;2024-03-02T04:02:36;94789.63;;;9.20;100.00
7182;BME280;3632;42.724;23.298;2024-03-02T04:05:05;94726.78;;;8.69;100.00
7182;BME280;3632;42.724;23.298;2024-03-02T04:07:35;94774.84;;;9.34;100.00
7182;BME280;3632;42.724;23.298;2024-03-02T04:10:07;94639.56;;;8.27;100.00
7182;BME280;3632;42.724;23.298;2024-03-02T04:12:35;94781.94;;;9.31;100.00
7182;BME280;3632;42.724;23.298;2024-03-02T04:15:02;94779.09;;;9.24;100.00
7182;BME280;3632;42.724;23.298;2024-03-02T04:17:30;94781.75;;;9.23;100.00
7182;BME280;3632;42.724;23.298;2024-03-02T04:19:57;94750.53;;;9.00;100.00
7182;BME280;3632;42.724;23.298;2024-03-02T04:22:26;94779.13;;;9.34;100.00
7182;BME280;3632;42.724;23.298;2024-03-02T04:24:53;94781.44;;;9.57;100.00
7182;BME280;3632;42.724;23.298;2024-03-02T04:27:20;94658.75;;;8.93;100.00
7182;BME280;3632;42.724;23.298;2024-03-02T04:29:46;94688.47;;;9.23;100.00
7182;BME280;3632;42.724;23.298;2024-03-02T04:32:13;94783.84;;;9.89;100.00
7182;BME280;3632;42.724;23.298;2024-03-02T04:34:40;94786.53;;;9.88;100.00
7182;BME280;3632;42.724;23.298;2024-03-02T04:37:06;94785.06;;;9.95;100.00
7182;BME280;3632;42.724;23.298;2024-03-02T04:39:35;94813.56;;;9.89;100.00
7182;BME280;3632;42.724;23.298;2024-03-02T04:42:01;94790.72;;;9.47;100.00
7182;BME280;3632;42.724;23.298;2024-03-02T04:44:28;94758.59;;;9.05;100.00
7182;BME280;3632;42.724;23.298;2024-03-02T04:46:55;94796.34;;;9.41;100.00
7182;BME280;3632;42.724;23.298;2024-03-02T04:49:21;94757.22;;;9.42;100.00
7182;BME280;3632;42.724;23.298;2024-03-02T04:51:48;94789.38;;;9.43;100.00
7182;BME280;3632;42.724;23.298;2024-03-02T04:54:15;94797.31;;;9.50;100.00
7182;BME280;3632;42.724;23.298;2024-03-02T04:56:43;94795.59;;;9.50;100.00
7182;BME280;3632;42.724;23.298;2024-03-02T04:59:10;94750.53;;;9.00;100.00
7182;BME280;3632;42.724;23.298;2024-03-02T05:01:36;94765.59;;;9.12;100.00
7182;BME280;3632;42.724;23.298;2024-03-02T05:04:03;94795.38;;;9.42;100.00
7182;BME280;3632;42.724;23.298;2024-03-02T05:06:30;94795.75;;;9.58;100.00
7182;BME280;3632;42.724;23.298;2024-03-02T05:08:57;94806.44;;;9.52;100.00
7182;BME280;3632;42.724;23.298;2024-03-02T05:11:24;94803.03;;;9.63;100.00
7182;BME280;3632;42.724;23.298;2024-03-02T05:14:12;94632.16;;;8.35;100.00
7182;BME280;3632;42.724;23.298;2024-03-02T05:16:38;94809.97;;;9.40;100.00
7182;BME280;3632;42.724;23.298;2024-03-02T05:19:06;94730.00;;;9.12;100.00
7182;BME280;3632;42.724;23.298;2024-03-02T05:21:33;94815.53;;;9.55;100.00
7182;BME280;3632;42.724;23.298;2024-03-02T05:24:00;94813.72;;;9.25;100.00
7182;BME280;3632;42.724;23.298;2024-03-02T05:26:26;94814.97;;;9.10;100.00
7182;BME280;3632;42.724;23.298;2024-03-02T05:28:53;94818.44;;;9.09;100.00
7182;BME280;3632;42.724;23.298;2024-03-02T05:31:21;94821.41;;;9.14;100.00
7182;BME280;3632;42.724;23.298;2024-03-02T05:33:48;94820.31;;;9.07;100.00
7182;BME280;3632;42.724;23.298;2024-03-02T05:36:14;94828.16;;;9.04;100.00
7182;BME280;3632;42.724;23.298;2024-03-02T05:38:41;94814.72;;;9.13;100.00
7182;BME280;3632;42.724;23.298;2024-03-02T05:41:08;94823.72;;;9.17;100.00
7182;BME280;3632;42.724;23.298;2024-03-02T05:43:35;94821.34;;;9.04;100.00
7182;BME280;3632;42.724;23.298;2024-03-02T05:46:01;94818.16;;;8.91;100.00
7182;BME280;3632;42.724;23.298;2024-03-02T05:48:33;94836.47;;;9.06;100.00
7182;BME280;3632;42.724;23.298;2024-03-02T05:51:03;94764.72;;;8.82;100.00
7182;BME280;3632;42.724;23.298;2024-03-02T05:53:29;94823.97;;;9.14;100.00
7182;BME280;3632;42.724;23.298;2024-03-02T05:55:56;94837.41;;;9.57;100.00
7182;BME280;3632;42.724;23.298;2024-03-02T05:58:23;94700.03;;;8.65;100.00
7182;BME280;3632;42.724;23.298;2024-03-02T06:01:02;94843.28;;;9.58;100.00
7182;BME280;3632;42.724;23.298;2024-03-02T06:03:31;94787.91;;;9.20;100.00
7182;BME280;3632;42.724;23.298;2024-03-02T06:05:58;94863.19;;;9.74;100.00
7182;BME280;3632;42.724;23.298;2024-03-02T06:08:25;94835.03;;;9.66;100.00
7182;BME280;3632;42.724;23.298;2024-03-02T06:10:52;94835.69;;;9.88;100.00
7182;BME280;3632;42.724;23.298;2024-03-02T06:13:18;94842.44;;;9.99;100.00
7182;BME280;3632;42.724;23.298;2024-03-02T06:15:45;94840.28;;;9.94;100.00
7182;BME280;3632;42.724;23.298;2024-03-02T06:18:12;94794.75;;;9.71;100.00
7182;BME280;3632;42.724;23.298;2024-03-02T06:20:40;94749.97;;;9.38;100.00
7182;BME280;3632;42.724;23.298;2024-03-02T06:23:07;94801.25;;;9.84;100.00
7182;BME280;3632;42.724;23.298;2024-03-02T06:25:37;94713.72;;;9.15;100.00
7182;BME280;3632;42.724;23.298;2024-03-02T06:28:06;94850.38;;;10.05;100.00
7182;BME280;3632;42.724;23.298;2024-03-02T06:30:32;94844.50;;;10.15;100.00
7182;BME280;3632;42.724;23.298;2024-03-02T06:32:59;94844.50;;;10.15;100.00
7182;BME280;3632;42.724;23.298;2024-03-02T06:35:26;94851.06;;;10.07;100.00
7182;BME280;3632;42.724;23.298;2024-03-02T06:37:54;94810.94;;;9.70;100.00
7182;BME280;3632;42.724;23.298;2024-03-02T06:40:20;94846.88;;;9.97;100.00
7182;BME280;3632;42.724;23.298;2024-03-02T06:42:47;94849.53;;;9.95;100.00
7182;BME280;3632;42.724;23.298;2024-03-02T06:45:14;94856.63;;;10.01;100.00
7182;BME280;3632;42.724;23.298;2024-03-02T06:47:41;94857.47;;;9.81;100.00
7182;BME280;3632;42.724;23.298;2024-03-02T06:50:08;94856.53;;;10.03;100.00
7182;BME280;3632;42.724;23.298;2024-03-02T06:52:35;94838.97;;;10.00;100.00
7182;BME280;3632;42.724;23.298;2024-03-02T06:55:19;94677.56;;;8.49;100.00
7182;BME280;3632;42.724;23.298;2024-03-02T06:57:49;94288.91;;;6.67;100.00
7182;BME280;3632;42.724;23.298;2024-03-02T07:00:16;94857.25;;;10.15;100.00
7182;BME280;3632;42.724;23.298;2024-03-02T07:02:43;94847.25;;;10.02;100.00
7182;BME280;3632;42.724;23.298;2024-03-02T07:05:10;94881.84;;;10.25;100.00
7182;BME280;3632;42.724;23.298;2024-03-02T07:07:37;94864.47;;;10.09;100.00
7182;BME280;3632;42.724;23.298;2024-03-02T07:10:04;94837.56;;;9.86;100.00
7182;BME280;3632;42.724;23.298;2024-03-02T07:12:34;94869.50;;;10.21;100.00
7182;BME280;3632;42.724;23.298;2024-03-02T07:15:00;94872.97;;;10.20;100.00
7182;BME280;3632;42.724;23.298;2024-03-02T07:17:50;94872.59;;;10.24;100.00
7182;BME280;3632;42.724;23.298;2024-03-02T07:20:17;94722.41;;;9.33;100.00
7182;BME280;3632;42.724;23.298;2024-03-02T07:22:43;94788.47;;;9.75;100.00
7182;BME280;3632;42.724;23.298;2024-03-02T07:25:10;94781.38;;;9.48;100.00
7182;BME280;3632;42.724;23.298;2024-03-02T07:27:38;94877.41;;;9.97;100.00
7182;BME280;3632;42.724;23.298;2024-03-02T07:30:06;94824.84;;;9.66;100.00
7182;BME280;3632;42.724;23.298;2024-03-02T07:32:33;94823.88;;;9.36;100.00
7182;BME280;3632;42.724;23.298;2024-03-02T07:35:00;94884.81;;;9.79;100.00
7182;BME280;3632;42.724;23.298;2024-03-02T07:37:29;94871.75;;;9.93;100.00
7182;BME280;3632;42.724;23.298;2024-03-02T07:39:55;94874.34;;;10.03;100.00
7182;BME280;3632;42.724;23.298;2024-03-02T07:42:23;94882.63;;;10.16;100.00
7182;BME280;3632;42.724;23.298;2024-03-02T07:44:51;94878.75;;;10.22;100.00
7182;BME280;3632;42.724;23.298;2024-03-02T07:47:18;94883.72;;;10.23;100.00
7182;BME280;3632;42.724;23.298;2024-03-02T07:49:44;94898.38;;;10.31;100.00
7182;BME280;3632;42.724;23.298;2024-03-02T07:52:12;94813.84;;;9.86;100.00
7182;BME280;3632;42.724;23.298;2024-03-02T07:54:38;94879.53;;;10.43;100.00
7182;BME280;3632;42.724;23.298;2024-03-02T07:57:05;94889.56;;;10.44;100.00
7182;BME280;3632;42.724;23.298;2024-03-02T07:59:32;94829.44;;;9.92;100.00
7182;BME280;3632;42.724;23.298;2024-03-02T08:02:00;94887.38;;;10.30;100.00
7182;BME280;3632;42.724;23.298;2024-03-02T08:04:27;94723.53;;;8.99;100.00
7182;BME280;3632;42.724;23.298;2024-03-02T08:06:53;94890.50;;;10.13;100.00
7182;BME280;3632;42.724;23.298;2024-03-02T08:09:21;94897.31;;;10.33;100.00
7182;BME280;3632;42.724;23.298;2024-03-02T08:11:47;94878.00;;;10.31;100.00
7182;BME280;3632;42.724;23.298;2024-03-02T08:14:14;94893.06;;;10.43;100.00
7182;BME280;3632;42.724;23.298;2024-03-02T08:16:41;94893.06;;;10.43;100.00
7182;BME280;3632;42.724;23.298;2024-03-02T08:19:09;94901.06;;;10.08;100.00
7182;BME280;3632;42.724;23.298;2024-03-02T08:21:36;94831.97;;;9.09;100.00
7182;BME280;3632;42.724;23.298;2024-03-02T08:24:03;94900.44;;;10.16;100.00
7182;BME280;3632;42.724;23.298;2024-03-02T08:26:30;94891.34;;;10.23;100.00
7182;BME280;3632;42.724;23.298;2024-03-02T08:28:57;94485.19;;;7.79;100.00
7182;BME280;3632;42.724;23.298;2024-03-02T08:31:24;94960.03;;;10.55;100.00
7182;BME280;3632;42.724;23.298;2024-03-02T08:33:51;94819.25;;;10.02;100.00
7182;BME280;3632;42.724;23.298;2024-03-02T08:36:19;94896.88;;;10.59;100.00
7182;BME280;3632;42.724;23.298;2024-03-02T08:38:48;94902.44;;;10.43;100.00
7182;BME280;3632;42.724;23.298;2024-03-02T08:41:15;94896.75;;;10.70;100.00
7182;BME280;3632;42.724;23.298;2024-03-02T08:43:42;94888.28;;;10.60;100.00
7182;BME280;3632;42.724;23.298;2024-03-02T08:46:09;94790.59;;;10.00;100.00
7182;BME280;3632;42.724;23.298;2024-03-02T08:48:35;94912.31;;;10.67;100.00
7182;BME280;3632;42.724;23.298;2024-03-02T08:51:03;94840.41;;;10.23;100.00
7182;BME280;3632;42.724;23.298;2024-03-02T08:53:34;94895.84;;;10.80;100.00
7182;BME280;3632;42.724;23.298;2024-03-02T08:56:01;94895.31;;;10.77;100.00
7182;BME280;3632;42.724;23.298;2024-03-02T08:58:30;94820.34;;;9.99;100.00
7182;BME280;3632;42.724;23.298;2024-03-02T09:00:57;94825.25;;;10.52;100.00
7182;BME280;3632;42.724;23.298;2024-03-02T09:03:24;94901.78;;;11.00;100.00
7182;BME280;3632;42.724;23.298;2024-03-02T09:05:51;94894.59;;;11.15;100.00
7182;BME280;3632;42.724;23.298;2024-03-02T09:08:17;94848.09;;;10.92;100.00
7182;BME280;3632;42.724;23.298;2024-03-02T09:10:46;94912.03;;;11.38;100.00
7182;BME280;3632;42.724;23.298;2024-03-02T09:13:13;94895.53;;;11.42;100.00
7182;BME280;3632;42.724;23.298;2024-03-02T09:15:39;94847.25;;;10.23;100.00
7182;BME280;3632;42.724;23.298;2024-03-02T09:18:13;94802.38;;;10.31;100.00
7182;BME280;3632;42.724;23.298;2024-03-02T09:20:42;94915.78;;;11.06;100.00
7182;BME280;3632;42.724;23.298;2024-03-02T09:23:09;94923.34;;;11.36;100.00
7182;BME280;3632;42.724;23.298;2024-03-02T09:25:35;94915.41;;;11.49;100.00
7182;BME280;3632;42.724;23.298;2024-03-02T09:28:04;94905.47;;;11.26;100.00
7182;BME280;3632;42.724;23.298;2024-03-02T09:30:31;94917.31;;;11.37;100.00
7182;BME280;3632;42.724;23.298;2024-03-02T09:32:57;94833.84;;;10.70;100.00
7182;BME280;3632;42.724;23.298;2024-03-02T09:35:25;94841.41;;;10.81;100.00
7182;BME280;3632;42.724;23.298;2024-03-02T09:37:52;94575.28;;;8.06;100.00
7182;BME280;3632;42.724;23.298;2024-03-02T09:40:21;94863.38;;;10.73;100.00
7182;BME280;3632;42.724;23.298;2024-03-02T09:42:48;94903.72;;;11.27;100.00
7182;BME280;3632;42.724;23.298;2024-03-02T09:45:22;94927.09;;;11.32;100.00
7182;BME280;3632;42.724;23.298;2024-03-02T09:47:49;94920.25;;;11.52;100.00
7182;BME280;3632;42.724;23.298;2024-03-02T09:50:16;94868.41;;;11.41;100.00
7182;BME280;3632;42.724;23.298;2024-03-02T09:52:43;94923.91;;;11.87;100.00
7182;BME280;3632;42.724;23.298;2024-03-02T09:55:11;94927.75;;;12.01;100.00
7182;BME280;3632;42.724;23.298;2024-03-02T09:57:38;94809.88;;;11.40;100.00
7182;BME280;3632;42.724;23.298;2024-03-02T10:00:06;94935.69;;;11.98;100.00
7182;BME280;3632;42.724;23.298;2024-03-02T10:02:35;94983.84;;;11.74;100.00
7182;BME280;3632;42.724;23.298;2024-03-02T10:05:01;94920.66;;;11.76;100.00
7182;BME280;3632;42.724;23.298;2024-03-02T10:07:29;94919.31;;;11.72;100.00
7182;BME280;3632;42.724;23.298;2024-03-02T10:09:56;94913.94;;;11.94;100.00
7182;BME280;3632;42.724;23.298;2024-03-02T10:12:22;94923.50;;;11.73;100.00
7182;BME280;3632;42.724;23.298;2024-03-02T10:14:49;94919.44;;;11.70;100.00
7182;BME280;3632;42.724;23.298;2024-03-02T10:17:18;94921.84;;;11.33;100.00
7182;BME280;3632;42.724;23.298;2024-03-02T10:19:46;94916.59;;;11.25;100.00
7182;BME280;3632;42.724;23.298;2024-03-02T10:22:13;94481.56;;;8.14;100.00
7182;BME280;3632;42.724;23.298;2024-03-02T10:24:42;94906.53;;;11.43;100.00
7182;BME280;3632;42.724;23.298;2024-03-02T10:27:10;94912.06;;;11.58;100.00
7182;BME280;3632;42.724;23.298;2024-03-02T10:29:41;94908.44;;;11.31;100.00
7182;BME280;3632;42.724;23.298;2024-03-02T10:32:09;94926.81;;;11.35;100.00
7182;BME280;3632;42.724;23.298;2024-03-02T10:34:36;94913.69;;;11.49;100.00
7182;BME280;3632;42.724;23.298;2024-03-02T10:37:05;94920.13;;;11.43;100.00
7182;BME280;3632;42.724;23.298;2024-03-02T10:39:32;94920.38;;;11.60;100.00
7182;BME280;3632;42.724;23.298;2024-03-02T10:42:02;94909.50;;;11.58;100.00
7182;BME280;3632;42.724;23.298;2024-03-02T10:44:30;94855.66;;;11.22;100.00
7182;BME280;3632;42.724;23.298;2024-03-02T10:46:59;94879.41;;;11.80;100.00
7182;BME280;3632;42.724;23.298;2024-03-02T10:49:27;94910.03;;;12.00;100.00
7182;BME280;3632;42.724;23.298;2024-03-02T10:51:55;94866.13;;;11.58;100.00
7182;BME280;3632;42.724;23.298;2024-03-02T10:54:23;94780.22;;;11.10;100.00
7182;BME280;3632;42.724;23.298;2024-03-02T10:56:56;94897.00;;;11.64;100.00
7182;BME280;3632;42.724;23.298;2024-03-02T10:59:27;94903.31;;;11.31;100.00
7182;BME280;3632;42.724;23.298;2024-03-02T11:01:57;94898.91;;;11.24;100.00
7182;BME280;3632;42.724;23.298;2024-03-02T11:04:25;94891.34;;;11.03;100.00
7182;BME280;3632;42.724;23.298;2024-03-02T11:06:56;94904.13;;;11.41;100.00
7182;BME280;3632;42.724;23.298;2024-03-02T11:09:27;94913.69;;;11.49;100.00
7182;BME280;3632;42.724;23.298;2024-03-02T11:12:01;94887.19;;;11.60;100.00
7182;BME280;3632;42.724;23.298;2024-03-02T11:14:30;94891.91;;;11.35;100.00
7182;BME280;3632;42.724;23.298;2024-03-02T11:16:58;94760.75;;;10.51;100.00
7182;BME280;3632;42.724;23.298;2024-03-02T11:19:25;94845.19;;;11.06;100.00
7182;BME280;3632;42.724;23.298;2024-03-02T11:21:53;94836.84;;;11.04;100.00
7182;BME280;3632;42.724;23.298;2024-03-02T11:24:30;94896.75;;;11.48;100.00
7182;BME280;3632;42.724;23.298;2024-03-02T11:27:00;94859.13;;;11.60;100.00
7182;BME280;3632;42.724;23.298;2024-03-02T11:29:43;94886.78;;;11.93;100.00
7182;BME280;3632;42.724;23.298;2024-03-02T11:32:14;94792.53;;;11.53;100.00
7182;BME280;3632;42.724;23.298;2024-03-02T11:34:42;94883.50;;;12.20;100.00
7182;BME280;3632;42.724;23.298;2024-03-02T11:37:12;94873.50;;;12.26;100.00
7182;BME280;3632;42.724;23.298;2024-03-02T11:39:42;94699.44;;;10.91;100.00
7182;BME280;3632;42.724;23.298;2024-03-02T11:42:09;94881.66;;;12.40;100.00
7182;BME280;3632;42.724;23.298;2024-03-02T11:44:37;94882.34;;;12.42;100.00
7182;BME280;3632;42.724;23.298;2024-03-02T11:47:06;94884.00;;;12.23;100.00
7182;BME280;3632;42.724;23.298;2024-03-02T11:49:37;94932.88;;;12.01;100.00
7182;BME280;3632;42.724;23.298;2024-03-02T11:52:05;94884.63;;;11.88;100.00
7182;BME280;3632;42.724;23.298;2024-03-02T11:54:32;94919.44;;;12.09;100.00
7182;BME280;3632;42.724;23.298;2024-03-02T11:57:01;94808.88;;;11.70;100.00
7182;BME280;3632;42.724;23.298;2024-03-02T11:59:29;94880.22;;;12.27;100.00
7182;BME280;3632;42.724;23.298;2024-03-02T12:01:56;94789.72;;;11.37;100.00
7182;BME280;3632;42.724;23.298;2024-03-02T12:04:24;94880.97;;;12.10;100.00
7182;BME280;3632;42.724;23.298;2024-03-02T12:06:54;94938.66;;;12.13;100.00
7182;BME280;3632;42.724;23.298;2024-03-02T12:09:21;94873.66;;;11.78;100.00
7182;BME280;3632;42.724;23.298;2024-03-02T12:11:48;94756.22;;;11.03;100.00
7182;BME280;3632;42.724;23.298;2024-03-02T12:14:16;94882.06;;;11.98;100.00
7182;BME280;3632;42.724;23.298;2024-03-02T12:16:44;94882.75;;;11.90;100.00
7182;BME280;3632;42.724;23.298;2024-03-02T12:19:10;94876.34;;;11.77;100.00
7182;BME280;3632;42.724;23.298;2024-03-02T12:21:37;94758.19;;;11.09;100.00
7182;BME280;3632;42.724;23.298;2024-03-02T12:24:04;94881.16;;;11.80;100.00
7182;BME280;3632;42.724;23.298;2024-03-02T12:26:31;94879.22;;;12.01;100.00
7182;BME280;3632;42.724;23.298;2024-03-02T12:28:58;94619.13;;;10.49;100.00
7182;BME280;3632;42.724;23.298;2024-03-02T12:31:26;94861.50;;;12.09;100.00
7182;BME280;3632;42.724;23.298;2024-03-02T12:33:54;94787.44;;;11.43;100.00
7182;BME280;3632;42.724;23.298;2024-03-02T12:36:22;94718.72;;;11.13;100.00
7182;BME280;3632;42.724;23.298;2024-03-02T12:38:52;94881.66;;;11.93;100.00
7182;BME280;3632;42.724;23.298;2024-03-02T12:41:20;94886.19;;;12.18;100.00
7182;BME280;3632;42.724;23.298;2024-03-02T12:43:47;94881.47;;;12.14;100.00
7182;BME280;3632;42.724;23.298;2024-03-02T12:46:14;94875.75;;;12.02;100.00
7182;BME280;3632;42.724;23.298;2024-03-02T12:48:42;94878.97;;;12.04;100.00
7182;BME280;3632;42.724;23.298;2024-03-02T12:51:09;94875.47;;;12.05;100.00
7182;BME280;3632;42.724;23.298;2024-03-02T12:53:36;94874.94;;;12.02;100.00
7182;BME280;3632;42.724;23.298;2024-03-02T12:56:03;94877.63;;;12.00;100.00
7182;BME280;3632;42.724;23.298;2024-03-02T12:58:39;94884.63;;;11.88;100.00
7182;BME280;3632;42.724;23.298;2024-03-02T13:01:07;94883.03;;;11.87;100.00
7182;BME280;3632;42.724;23.298;2024-03-02T13:03:35;94517.25;;;8.94;100.00
7182;BME280;3632;42.724;23.298;2024-03-02T13:06:04;94859.16;;;11.40;100.00
7182;BME280;3632;42.724;23.298;2024-03-02T13:08:31;94883.72;;;11.61;100.00
7182;BME280;3632;42.724;23.298;2024-03-02T13:10:59;94886.25;;;11.13;100.00